createdAt,value
2023-03-26T00:01:38.423Z,37.30
2023-03-26T00:03:41.358Z,37.50
2023-03-26T00:05:45.579Z,37.90
2023-03-26T00:07:48.634Z,37.90
2023-03-26T00:09:53.344Z,37.80
2023-03-26T00:11:55.633Z,38.00
2023-03-26T00:13:57.968Z,38.30
2023-03-26T00:16:01.218Z,38.40
2023-03-26T00:18:03.798Z,38.40
2023-03-26T00:20:08.007Z,38.30
2023-03-26T00:22:14.227Z,38.40
2023-03-26T00:24:18.041Z,38.50
2023-03-26T00:26:19.742Z,38.40
2023-03-26T00:28:22.288Z,38.40
2023-03-26T00:30:24.226Z,38.40
2023-03-26T00:32:28.054Z,38.40
2023-03-26T00:34:34.310Z,37.40
2023-03-26T00:36:36.324Z,38.10
2023-03-26T00:38:39.097Z,37.10
2023-03-26T00:40:43.927Z,36.90
2023-03-26T00:42:45.743Z,36.80
2023-03-26T00:44:47.454Z,36.60
2023-03-26T00:46:51.709Z,36.50
2023-03-26T00:49:03.721Z,36.50
2023-03-26T00:51:06.424Z,36.50
2023-03-26T00:53:08.822Z,36.60
2023-03-26T00:55:10.669Z,36.60
2023-03-26T00:57:25.666Z,36.50
2023-03-26T00:59:31.788Z,36.50
2023-03-26T01:01:33.567Z,36.40
2023-03-26T01:03:38.588Z,36.60
2023-03-26T01:05:48.837Z,36.60
2023-03-26T01:07:51.527Z,36.50
2023-03-26T01:09:56.107Z,36.40
2023-03-26T01:11:59.316Z,36.40
2023-03-26T01:14:08.687Z,36.30
2023-03-26T01:16:26.938Z,36.30
2023-03-26T01:18:34.106Z,36.30
2023-03-26T01:20:46.470Z,36.30
2023-03-26T01:22:52.253Z,36.30
2023-03-26T01:24:56.472Z,36.20
2023-03-26T01:27:04.754Z,36.20
2023-03-26T01:29:12.853Z,36.20
2023-03-26T01:31:36.953Z,36.30
2023-03-26T01:33:47.595Z,36.40
2023-03-26T01:36:10.799Z,36.10
2023-03-26T01:38:35.443Z,36.10
2023-03-26T01:40:51.836Z,36.20
2023-03-26T01:42:56.818Z,36.30
2023-03-26T01:45:04.627Z,36.30
2023-03-26T01:47:07.831Z,36.30
2023-03-26T01:49:13.405Z,36.30
2023-03-26T01:51:28.035Z,36.20
2023-03-26T01:53:31.747Z,36.20
2023-03-26T01:56:15.158Z,36.00
2023-03-26T01:58:51.712Z,36.10
2023-03-26T02:01:30.255Z,35.90
2023-03-26T02:03:37.493Z,35.80
2023-03-26T02:05:44.298Z,35.50
2023-03-26T02:08:22.365Z,35.60
2023-03-26T02:10:31.809Z,35.70
2023-03-26T02:12:34.798Z,35.50
2023-03-26T02:14:36.730Z,35.50
2023-03-26T02:16:38.475Z,35.60
2023-03-26T02:18:40.628Z,35.50
2023-03-26T02:20:42.369Z,35.40
2023-03-26T02:22:47.438Z,35.40
2023-03-26T02:24:52.025Z,35.40
2023-03-26T02:26:55.550Z,35.40
2023-03-26T02:28:58.498Z,35.40
2023-03-26T02:31:01.773Z,35.50
2023-03-26T02:33:07.308Z,35.60
2023-03-26T02:35:15.649Z,35.40
2023-03-26T02:37:18.954Z,35.40
2023-03-26T02:39:26.619Z,35.40
2023-03-26T02:41:35.452Z,35.20
2023-03-26T02:43:41.832Z,35.20
2023-03-26T02:45:47.848Z,35.00
2023-03-26T02:48:09.548Z,35.10
2023-03-26T02:50:26.600Z,35.00
2023-03-26T02:52:59.032Z,35.10
2023-03-26T02:55:02.164Z,35.20
2023-03-26T02:57:04.098Z,35.30
2023-03-26T02:59:26.231Z,35.20
2023-03-26T03:01:54.439Z,35.20
2023-03-26T03:03:56.837Z,35.20
2023-03-26T03:06:09.636Z,35.20
2023-03-26T03:08:20.232Z,35.30
2023-03-26T03:11:00.718Z,35.40
2023-03-26T03:13:13.114Z,35.50
2023-03-26T03:15:14.988Z,35.20
2023-03-26T03:17:16.770Z,35.40
2023-03-26T03:19:18.483Z,35.30
2023-03-26T03:21:28.244Z,35.30
2023-03-26T03:23:32.285Z,35.40
2023-03-26T03:25:43.891Z,35.10
2023-03-26T03:27:45.797Z,35.10
2023-03-26T03:29:48.629Z,35.10
2023-03-26T03:32:19.762Z,35.20
2023-03-26T03:34:23.373Z,35.10
2023-03-26T03:36:27.947Z,34.90
2023-03-26T03:38:38.605Z,35.00
2023-03-26T03:40:40.887Z,35.00
2023-03-26T03:42:42.866Z,34.70
2023-03-26T03:44:47.800Z,34.50
2023-03-26T03:47:13.851Z,34.40
2023-03-26T03:49:16.374Z,34.20
2023-03-26T03:51:20.913Z,34.30
2023-03-26T03:53:31.835Z,34.50
2023-03-26T03:55:38.190Z,34.50
2023-03-26T03:57:41.460Z,34.60
2023-03-26T03:59:51.036Z,34.60
2023-03-26T04:01:53.257Z,34.70
2023-03-26T04:04:07.692Z,34.80
2023-03-26T04:06:35.485Z,34.80
2023-03-26T04:08:37.343Z,34.90
2023-03-26T04:10:43.609Z,35.00
2023-03-26T04:12:51.196Z,35.10
2023-03-26T04:14:56.775Z,35.10
2023-03-26T04:16:58.789Z,35.00
2023-03-26T04:19:03.789Z,35.00
2023-03-26T04:21:07.510Z,35.60
2023-03-26T04:23:13.966Z,34.80
2023-03-26T04:25:19.574Z,34.80
2023-03-26T04:27:37.925Z,34.70
2023-03-26T04:29:52.171Z,34.60
2023-03-26T04:32:06.434Z,34.70
2023-03-26T04:34:20.513Z,34.80
2023-03-26T04:36:32.058Z,34.80
2023-03-26T04:38:41.222Z,34.80
2023-03-26T04:40:47.315Z,35.00
2023-03-26T04:43:12.383Z,34.80
2023-03-26T04:45:37.250Z,34.90
2023-03-26T04:47:39.508Z,34.90
2023-03-26T04:49:42.657Z,35.10
2023-03-26T04:51:48.284Z,35.20
2023-03-26T04:54:12.675Z,35.10
2023-03-26T04:56:47.296Z,35.10
2023-03-26T04:58:50.299Z,35.40
2023-03-26T05:00:52.734Z,35.40
2023-03-26T05:02:57.546Z,35.40
2023-03-26T05:04:59.550Z,35.40
2023-03-26T05:07:05.865Z,35.50
2023-03-26T05:09:14.372Z,35.70
2023-03-26T05:11:48.578Z,35.50
2023-03-26T05:13:54.046Z,35.70
2023-03-26T05:15:56.215Z,35.70
2023-03-26T05:18:08.667Z,35.90
2023-03-26T05:20:22.441Z,35.90
2023-03-26T05:22:26.896Z,36.20
2023-03-26T05:24:50.426Z,36.00
2023-03-26T05:26:53.891Z,36.00
2023-03-26T05:28:58.509Z,36.30
2023-03-26T05:31:09.695Z,36.30
2023-03-26T05:33:18.307Z,36.30
2023-03-26T05:35:34.712Z,36.40
2023-03-26T05:37:38.746Z,36.30
2023-03-26T05:39:43.748Z,36.50
2023-03-26T05:42:07.686Z,36.40
2023-03-26T05:44:30.835Z,36.30
2023-03-26T05:46:37.993Z,36.30
2023-03-26T05:48:39.853Z,36.20
2023-03-26T05:50:42.368Z,36.30
2023-03-26T05:52:44.631Z,36.10
2023-03-26T05:54:58.409Z,36.20
2023-03-26T05:57:19.055Z,36.20
2023-03-26T05:59:50.737Z,36.10
2023-03-26T06:01:57.822Z,36.10
2023-03-26T06:04:23.520Z,36.20
2023-03-26T06:06:47.135Z,36.00
2023-03-26T06:09:01.889Z,36.10
2023-03-26T06:11:08.105Z,36.20
2023-03-26T06:13:17.786Z,36.40
2023-03-26T06:15:20.783Z,36.20
2023-03-26T06:17:28.142Z,36.50
2023-03-26T06:19:49.504Z,36.60
2023-03-26T06:22:01.279Z,36.70
2023-03-26T06:24:07.824Z,36.80
2023-03-26T06:26:12.290Z,36.90
2023-03-26T06:28:52.190Z,37.10
2023-03-26T06:31:11.749Z,37.10
2023-03-26T06:33:28.852Z,37.10
2023-03-26T06:35:31.419Z,37.10
2023-03-26T06:37:33.328Z,37.30
2023-03-26T06:39:36.927Z,37.10
2023-03-26T06:41:50.706Z,37.10
2023-03-26T06:44:11.122Z,37.10
2023-03-26T06:46:31.427Z,36.90
2023-03-26T06:48:51.983Z,36.60
2023-03-26T06:51:20.279Z,36.70
2023-03-26T06:53:40.430Z,36.50
2023-03-26T06:55:53.875Z,36.40
2023-03-26T06:58:33.800Z,36.40
2023-03-26T07:00:55.563Z,36.20
2023-03-26T07:03:23.403Z,36.30
2023-03-26T07:05:44.492Z,36.20
2023-03-26T07:08:06.362Z,36.30
2023-03-26T07:10:27.071Z,36.10
2023-03-26T07:12:47.517Z,36.10
2023-03-26T07:15:08.398Z,37.20
2023-03-26T07:17:30.386Z,37.30
2023-03-26T07:19:58.223Z,37.30
2023-03-26T07:22:01.989Z,37.70
2023-03-26T07:24:24.126Z,37.70
2023-03-26T07:26:50.302Z,37.90
2023-03-26T07:29:22.296Z,37.90
2023-03-26T07:31:54.225Z,38.30
2023-03-26T07:34:45.269Z,38.30
2023-03-26T07:37:12.871Z,38.30
2023-03-26T07:39:51.187Z,38.30
2023-03-26T07:42:59.884Z,38.80
2023-03-26T07:45:45.789Z,39.30
2023-03-26T07:48:18.398Z,39.70
2023-03-26T07:50:33.993Z,40.10
2023-03-26T07:52:49.264Z,40.70
2023-03-26T07:55:16.278Z,41.30
2023-03-26T07:57:52.754Z,41.70
2023-03-26T08:00:12.059Z,41.90
2023-03-26T08:02:59.091Z,41.90
2023-03-26T08:05:28.374Z,42.50
2023-03-26T08:08:08.661Z,42.70
2023-03-26T08:10:44.114Z,43.00
2023-03-26T08:12:59.272Z,43.40
2023-03-26T08:15:38.053Z,43.80
2023-03-26T08:17:53.241Z,44.10
2023-03-26T08:20:18.485Z,44.20
2023-03-26T08:22:34.195Z,44.50
2023-03-26T08:24:57.235Z,44.80
2023-03-26T08:27:22.434Z,45.40
2023-03-26T08:29:45.418Z,44.40
2023-03-26T08:31:49.324Z,44.40
2023-03-26T08:33:51.499Z,44.50
2023-03-26T08:35:53.359Z,44.80
2023-03-26T08:38:04.502Z,45.20
2023-03-26T08:40:09.767Z,45.70
2023-03-26T08:42:34.676Z,46.20
2023-03-26T08:44:54.790Z,46.00
2023-03-26T08:47:36.159Z,45.60
2023-03-26T08:49:56.423Z,45.20
2023-03-26T08:52:20.549Z,45.00
2023-03-26T08:54:37.293Z,43.50
2023-03-26T08:57:03.970Z,42.70
2023-03-26T08:59:29.459Z,41.60
2023-03-26T09:01:37.857Z,41.00
2023-03-26T09:04:17.052Z,40.80
2023-03-26T09:06:40.778Z,40.60
2023-03-26T09:09:18.869Z,40.20
2023-03-26T09:11:52.201Z,39.60
2023-03-26T09:13:58.742Z,39.00
2023-03-26T09:16:31.576Z,39.20
2023-03-26T09:18:53.503Z,38.80
2023-03-26T09:21:14.132Z,38.40
2023-03-26T09:23:52.561Z,38.50
2023-03-26T09:26:24.721Z,37.80
2023-03-26T09:28:41.328Z,38.30
2023-03-26T09:30:58.289Z,40.30
2023-03-26T09:33:18.969Z,40.40
2023-03-26T09:35:47.465Z,40.00
2023-03-26T09:38:18.479Z,40.70
2023-03-26T09:40:24.509Z,40.50
2023-03-26T09:42:34.209Z,41.20
2023-03-26T09:45:10.434Z,40.80
2023-03-26T09:47:23.971Z,41.50
2023-03-26T09:49:33.926Z,40.30
2023-03-26T09:51:51.852Z,40.00
2023-03-26T09:54:36.839Z,39.90
2023-03-26T09:56:58.453Z,39.20
2023-03-26T09:59:22.149Z,39.00
2023-03-26T10:01:38.840Z,38.40
2023-03-26T10:03:43.307Z,38.40
2023-03-26T10:05:57.928Z,36.80
2023-03-26T10:08:06.451Z,36.90
2023-03-26T10:10:21.286Z,36.90
2023-03-26T10:12:38.604Z,35.90
2023-03-26T10:15:23.980Z,35.60
2023-03-26T10:17:35.629Z,35.30
2023-03-26T10:20:02.339Z,35.70
2023-03-26T10:22:22.121Z,35.30
2023-03-26T10:25:09.182Z,35.40
2023-03-26T10:27:32.232Z,35.00
2023-03-26T10:29:39.768Z,33.70
2023-03-26T10:31:55.669Z,33.40
2023-03-26T10:34:28.399Z,33.30
2023-03-26T10:36:57.943Z,32.70
2023-03-26T10:39:36.534Z,32.20
2023-03-26T10:42:07.132Z,31.10
2023-03-26T10:44:45.750Z,31.50
2023-03-26T10:47:14.449Z,31.80
2023-03-26T10:49:39.633Z,31.80
2023-03-26T10:51:53.393Z,31.60
2023-03-26T10:54:29.918Z,31.20
2023-03-26T10:56:45.977Z,31.00
2023-03-26T10:58:49.985Z,30.90
2023-03-26T11:01:21.217Z,30.90
2023-03-26T11:03:33.311Z,31.10
2023-03-26T11:05:59.206Z,31.00
2023-03-26T11:08:06.790Z,31.00
2023-03-26T11:10:39.475Z,31.60
2023-03-26T11:12:52.107Z,32.10
2023-03-26T11:15:06.758Z,32.00
2023-03-26T11:17:52.853Z,31.80
2023-03-26T11:20:18.178Z,31.20
2023-03-26T11:22:47.566Z,31.30
2023-03-26T11:24:52.585Z,30.80
2023-03-26T11:27:17.450Z,30.80
2023-03-26T11:29:38.916Z,30.60
2023-03-26T11:32:01.086Z,30.40
2023-03-26T11:34:09.503Z,29.10
2023-03-26T11:36:17.162Z,28.90
2023-03-26T11:38:24.549Z,28.80
2023-03-26T11:40:35.790Z,29.10
2023-03-26T11:42:37.923Z,29.20
2023-03-26T11:44:44.080Z,29.20
2023-03-26T11:46:49.828Z,29.50
2023-03-26T11:49:02.026Z,29.70
2023-03-26T11:51:14.614Z,29.60
2023-03-26T11:53:19.233Z,29.70
2023-03-26T11:55:24.132Z,30.40
2023-03-26T11:57:33.201Z,31.70
2023-03-26T11:59:57.236Z,32.50
2023-03-26T12:02:06.142Z,32.60
2023-03-26T12:04:17.005Z,33.10
2023-03-26T12:06:28.871Z,33.20
2023-03-26T12:08:37.679Z,32.80
2023-03-26T12:10:43.081Z,32.80
2023-03-26T12:12:47.993Z,32.70
2023-03-26T12:14:52.880Z,32.10
2023-03-26T12:17:07.864Z,31.70
2023-03-26T12:19:19.783Z,31.80
2023-03-26T12:21:22.472Z,31.90
2023-03-26T12:23:44.882Z,31.90
2023-03-26T12:26:12.948Z,30.80
2023-03-26T12:28:15.602Z,30.10
2023-03-26T12:30:22.276Z,29.90
2023-03-26T12:32:39.123Z,29.30
2023-03-26T12:34:47.552Z,28.10
2023-03-26T12:36:55.215Z,27.70
2023-03-26T12:39:16.536Z,27.90
2023-03-26T12:43:40.262Z,28.30
2023-03-26T12:44:50.183Z,28.80
2023-03-26T12:47:55.363Z,28.30
2023-03-26T12:49:08.976Z,28.30
2023-03-26T12:51:26.258Z,28.20
2023-03-26T12:53:46.869Z,27.70
2023-03-26T12:56:01.823Z,28.30
2023-03-26T12:58:14.735Z,28.10
2023-03-26T13:00:35.870Z,28.30
2023-03-26T13:03:11.874Z,28.10
2023-03-26T13:05:28.448Z,28.40
2023-03-26T13:07:51.792Z,28.10
2023-03-26T13:10:22.654Z,27.60
2023-03-26T13:12:40.771Z,27.50
2023-03-26T13:14:47.751Z,26.70
2023-03-26T13:17:04.732Z,26.30
2023-03-26T13:19:23.726Z,26.20
2023-03-26T13:21:57.609Z,26.40
2023-03-26T13:24:17.101Z,26.70
2023-03-26T13:26:24.027Z,27.10
2023-03-26T13:29:01.347Z,27.40
2023-03-26T13:31:15.268Z,26.70
2023-03-26T13:33:40.979Z,26.90
2023-03-26T13:36:19.101Z,27.10
2023-03-26T13:39:00.783Z,26.80
2023-03-26T13:41:18.702Z,25.90
2023-03-26T13:43:45.545Z,25.90
2023-03-26T13:45:55.633Z,25.80
2023-03-26T13:47:59.633Z,25.50
2023-03-26T13:50:19.016Z,25.20
2023-03-26T13:52:32.992Z,25.10
2023-03-26T13:54:54.594Z,25.40
2023-03-26T13:57:15.237Z,26.20
2023-03-26T13:59:29.686Z,26.50
2023-03-26T14:01:48.700Z,26.70
2023-03-26T14:04:36.838Z,27.00
2023-03-26T14:06:58.608Z,27.60
2023-03-26T14:09:23.070Z,28.10
2023-03-26T14:11:50.805Z,28.60
2023-03-26T14:14:26.472Z,29.00
2023-03-26T14:16:46.915Z,29.40
2023-03-26T14:19:01.001Z,29.40
2023-03-26T14:21:40.719Z,29.40
2023-03-26T14:23:42.627Z,29.40
2023-03-26T14:26:26.485Z,29.30
2023-03-26T14:29:09.766Z,29.40
2023-03-26T14:31:49.675Z,27.60
2023-03-26T14:34:14.694Z,27.10
2023-03-26T14:36:34.578Z,27.10
2023-03-26T14:38:59.094Z,27.20
2023-03-26T14:41:33.308Z,27.40
2023-03-26T14:43:52.867Z,27.90
2023-03-26T14:46:32.418Z,28.10
2023-03-26T14:48:36.745Z,28.40
2023-03-26T14:50:47.180Z,28.40
2023-03-26T14:53:01.139Z,28.70
2023-03-26T14:55:13.023Z,28.80
2023-03-26T14:57:52.475Z,29.40
2023-03-26T15:00:18.056Z,30.00
2023-03-26T15:02:28.466Z,30.70
2023-03-26T15:04:55.453Z,31.30
2023-03-26T15:07:23.832Z,31.90
2023-03-26T15:09:56.876Z,32.10
2023-03-26T15:12:14.357Z,31.70
2023-03-26T15:14:44.826Z,31.90
2023-03-26T15:17:24.279Z,32.10
2023-03-26T15:20:26.035Z,32.20
2023-03-26T15:23:01.312Z,32.50
2023-03-26T15:25:19.044Z,32.30
2023-03-26T15:27:58.384Z,32.60
2023-03-26T15:30:29.405Z,32.70
2023-03-26T15:32:52.527Z,32.40
2023-03-26T15:35:16.046Z,32.20
2023-03-26T15:38:08.261Z,32.60
2023-03-26T15:40:33.936Z,32.60
2023-03-26T15:43:04.261Z,32.00
2023-03-26T15:45:30.700Z,32.00
2023-03-26T15:47:50.456Z,32.40
2023-03-26T15:50:08.598Z,32.70
2023-03-26T15:52:27.064Z,32.30
2023-03-26T15:55:04.429Z,32.20
2023-03-26T15:57:28.627Z,31.90
2023-03-26T15:59:36.976Z,30.80
2023-03-26T16:01:47.787Z,30.40
2023-03-26T16:04:01.684Z,30.40
2023-03-26T16:06:21.854Z,30.60
2023-03-26T16:08:39.091Z,30.40
2023-03-26T16:10:56.475Z,30.40
2023-03-26T16:13:20.172Z,30.60
2023-03-26T16:15:35.063Z,30.90
2023-03-26T16:18:05.100Z,30.70
2023-03-26T16:20:25.963Z,30.30
2023-03-26T16:22:42.923Z,29.90
2023-03-26T16:25:26.554Z,29.70
2023-03-26T16:27:32.112Z,29.30
2023-03-26T16:29:56.566Z,29.20
2023-03-26T16:32:10.676Z,29.30
2023-03-26T16:34:23.823Z,29.40
2023-03-26T16:36:35.664Z,29.40
2023-03-26T16:38:54.792Z,29.50
2023-03-26T16:41:16.869Z,29.50
2023-03-26T16:43:33.508Z,29.50
2023-03-26T16:46:29.535Z,29.60
2023-03-26T16:49:07.714Z,29.80
2023-03-26T16:51:16.888Z,30.00
2023-03-26T16:53:34.593Z,30.00
2023-03-26T16:55:55.446Z,30.10
2023-03-26T16:58:04.572Z,30.00
2023-03-26T17:00:35.686Z,30.40
2023-03-26T17:02:52.099Z,30.40
2023-03-26T17:05:20.903Z,30.70
2023-03-26T17:07:43.245Z,31.00
2023-03-26T17:10:05.715Z,31.10
2023-03-26T17:12:22.006Z,31.10
2023-03-26T17:14:50.788Z,31.20
2023-03-26T17:17:07.378Z,31.40
2023-03-26T17:19:29.581Z,31.40
2023-03-26T17:21:46.988Z,31.40
2023-03-26T17:24:15.290Z,31.70
2023-03-26T17:26:49.051Z,31.80
2023-03-26T17:29:17.357Z,32.00
2023-03-26T17:31:45.464Z,32.10
2023-03-26T17:33:47.933Z,31.90
2023-03-26T17:36:12.134Z,32.10
2023-03-26T17:38:34.045Z,32.10
2023-03-26T17:40:49.038Z,32.50
2023-03-26T17:43:11.493Z,32.50
2023-03-26T17:45:28.859Z,32.80
2023-03-26T17:48:12.455Z,32.50
2023-03-26T17:50:26.530Z,32.60
2023-03-26T17:52:53.398Z,32.60
2023-03-26T17:54:56.926Z,32.90
2023-03-26T17:57:05.130Z,32.70
2023-03-26T17:59:11.534Z,33.50
2023-03-26T18:01:42.081Z,32.70
2023-03-26T18:03:56.701Z,33.00
2023-03-26T18:06:07.864Z,32.80
2023-03-26T18:08:44.282Z,32.90
2023-03-26T18:11:03.410Z,33.00
2023-03-26T18:13:40.659Z,33.10
2023-03-26T18:15:49.510Z,33.00
2023-03-26T18:18:06.232Z,32.90
2023-03-26T18:20:18.678Z,33.10
2023-03-26T18:22:27.627Z,33.10
2023-03-26T18:24:43.084Z,33.20
2023-03-26T18:26:54.844Z,33.50
2023-03-26T18:29:19.002Z,33.50
2023-03-26T18:31:24.719Z,33.70
2023-03-26T18:33:26.915Z,33.80
2023-03-26T18:35:42.302Z,33.70
2023-03-26T18:37:46.028Z,33.90
2023-03-26T18:40:19.166Z,34.10
2023-03-26T18:42:23.477Z,34.10
2023-03-26T18:44:27.956Z,34.00
2023-03-26T18:46:31.780Z,34.20
2023-03-26T18:48:35.750Z,34.20
2023-03-26T18:50:45.006Z,34.20
2023-03-26T18:52:46.804Z,34.40
2023-03-26T18:54:52.343Z,34.50
2023-03-26T18:56:55.182Z,34.60
2023-03-26T18:59:02.486Z,34.60
2023-03-26T19:01:16.997Z,34.70
2023-03-26T19:03:26.885Z,34.90
2023-03-26T19:05:31.970Z,34.90
2023-03-26T19:07:36.384Z,35.00
2023-03-26T19:09:38.727Z,35.20
2023-03-26T19:11:41.554Z,35.10
2023-03-26T19:13:43.483Z,35.00
2023-03-26T19:15:47.693Z,35.20
2023-03-26T19:17:55.798Z,35.30
2023-03-26T19:19:58.209Z,35.40
2023-03-26T19:22:01.337Z,35.20
2023-03-26T19:24:04.257Z,35.30
2023-03-26T19:26:10.311Z,35.20
2023-03-26T19:28:21.655Z,35.40
2023-03-26T19:30:34.434Z,35.40
2023-03-26T19:32:36.273Z,35.50
2023-03-26T19:34:41.702Z,35.40
2023-03-26T19:37:04.756Z,35.40
2023-03-26T19:39:12.740Z,35.50
2023-03-26T19:41:26.475Z,35.50
2023-03-26T19:43:28.839Z,35.50
2023-03-26T19:45:34.710Z,35.20
2023-03-26T19:47:50.028Z,35.40
2023-03-26T19:50:01.259Z,35.30
2023-03-26T19:52:05.410Z,35.20
2023-03-26T19:54:16.201Z,35.10
2023-03-26T19:56:20.664Z,35.20
2023-03-26T19:58:22.619Z,35.00
2023-03-26T20:00:24.250Z,35.20
2023-03-26T20:02:27.461Z,34.90
2023-03-26T20:04:32.415Z,35.00
2023-03-26T20:06:43.773Z,34.90
2023-03-26T20:08:46.546Z,34.90
2023-03-26T20:10:48.197Z,34.70
2023-03-26T20:12:49.951Z,34.70
2023-03-26T20:14:51.677Z,34.50
2023-03-26T20:16:53.656Z,34.30
2023-03-26T20:18:57.322Z,34.20
2023-03-26T20:20:59.068Z,34.20
2023-03-26T20:23:03.795Z,34.00
2023-03-26T20:25:31.127Z,34.00
2023-03-26T20:27:33.236Z,33.90
2023-03-26T20:29:36.500Z,33.80
2023-03-26T20:31:39.589Z,33.30
2023-03-26T20:33:41.313Z,33.20
2023-03-26T20:35:43.455Z,33.20
2023-03-26T20:37:45.864Z,33.20
2023-03-26T20:39:47.538Z,33.10
2023-03-26T20:41:50.966Z,33.10
2023-03-26T20:43:54.435Z,33.00
2023-03-26T20:45:58.698Z,32.90
2023-03-26T20:48:05.240Z,32.70
2023-03-26T20:50:09.837Z,32.80
2023-03-26T20:52:13.738Z,32.80
2023-03-26T20:54:24.463Z,32.70
2023-03-26T20:56:28.741Z,32.50
2023-03-26T20:58:32.378Z,32.60
2023-03-26T21:00:37.473Z,32.40
2023-03-26T21:02:41.272Z,32.50
2023-03-26T21:04:49.490Z,32.40
2023-03-26T21:06:53.354Z,32.30
2023-03-26T21:08:57.646Z,32.30
2023-03-26T21:11:01.981Z,32.30
2023-03-26T21:13:33.949Z,32.40
2023-03-26T21:15:36.275Z,32.10
2023-03-26T21:17:38.518Z,32.30
2023-03-26T21:19:40.608Z,33.30
2023-03-26T21:22:25.747Z,32.30
2023-03-26T21:25:18.513Z,32.30
2023-03-26T21:27:40.661Z,32.20
2023-03-26T21:29:42.876Z,32.20
2023-03-26T21:31:44.942Z,33.20
2023-03-26T21:33:48.062Z,32.10
2023-03-26T21:35:51.646Z,32.20
2023-03-26T21:37:57.530Z,32.30
2023-03-26T21:40:01.804Z,32.10
2023-03-26T21:42:06.418Z,32.20
2023-03-26T21:44:08.492Z,33.10
2023-03-26T21:46:11.112Z,32.90
2023-03-26T21:48:13.108Z,33.00
2023-03-26T21:50:21.900Z,32.90
2023-03-26T21:52:25.647Z,31.90
2023-03-26T21:54:30.750Z,31.90
2023-03-26T21:56:53.160Z,33.40
2023-03-26T21:59:08.702Z,32.20
2023-03-26T22:01:35.737Z,32.00
2023-03-26T22:04:02.649Z,31.90
2023-03-26T22:06:17.543Z,30.50
2023-03-26T22:08:38.936Z,30.90
2023-03-26T22:10:40.821Z,30.50
2023-03-26T22:12:42.571Z,30.80
2023-03-26T22:14:44.874Z,30.60
2023-03-26T22:16:49.265Z,30.60
2023-03-26T22:18:52.759Z,30.60
2023-03-26T22:20:54.746Z,30.60
2023-03-26T22:22:56.791Z,30.40
2023-03-26T22:25:01.523Z,30.50
2023-03-26T22:27:03.773Z,30.20
2023-03-26T22:29:05.701Z,30.40
2023-03-26T22:31:08.696Z,30.40
2023-03-26T22:33:14.320Z,30.50
2023-03-26T22:35:16.568Z,30.50
2023-03-26T22:37:23.455Z,30.40
2023-03-26T22:39:25.132Z,30.40
2023-03-26T22:41:29.840Z,30.40
2023-03-26T22:43:31.594Z,30.40
2023-03-26T22:45:37.454Z,30.40
2023-03-26T22:47:40.085Z,30.50
2023-03-26T22:49:44.261Z,30.10
2023-03-26T22:51:45.994Z,30.00
2023-03-26T22:53:51.151Z,30.00
2023-03-26T22:55:52.867Z,29.90
2023-03-26T22:57:54.540Z,29.80
2023-03-26T22:59:56.302Z,29.60
2023-03-26T23:01:58.455Z,29.50
2023-03-26T23:04:00.220Z,29.60
2023-03-26T23:06:04.503Z,29.30
2023-03-26T23:08:07.631Z,29.30
2023-03-26T23:10:12.311Z,29.70
2023-03-26T23:12:13.978Z,29.10
2023-03-26T23:14:16.455Z,28.60
2023-03-26T23:16:19.724Z,28.50
2023-03-26T23:18:24.417Z,28.20
2023-03-26T23:20:29.115Z,27.90
2023-03-26T23:22:33.183Z,27.90
2023-03-26T23:24:34.908Z,27.50
2023-03-26T23:26:49.528Z,27.40
2023-03-26T23:28:52.614Z,27.40
2023-03-26T23:30:54.920Z,27.80
2023-03-26T23:32:57.196Z,27.80
2023-03-26T23:35:01.386Z,27.60
2023-03-26T23:37:03.575Z,27.70
2023-03-26T23:39:05.278Z,27.70
2023-03-26T23:41:07.151Z,27.70
2023-03-26T23:43:09.304Z,27.70
2023-03-26T23:45:12.135Z,27.70
2023-03-26T23:47:19.419Z,27.80
2023-03-26T23:49:24.177Z,27.80
2023-03-26T23:51:32.873Z,27.80
2023-03-26T23:53:35.311Z,27.70
2023-03-26T23:55:37.912Z,27.80
2023-03-26T23:57:40.458Z,27.80
2023-03-26T23:59:42.125Z,27.80
